aviador You're here:

DTTD Decoded Metar

REMADA in TUNISIA
Report Time2018-06-23 12:00:00
UTC Time2018-06-23 13:58:15
Flight Rules Old
Wind090° at 04 kt
W.Decomp.*RWY 02: 1.4 kt HW 3.7 kt RCW
W.Rank090° ranks 2
Current wind is below 090° avg. (5.8)
Visibility9999 m
Phenomena:N/A
Clouds:Few 026 Hf
Expected CloudBase > 10,400 ft AGL from Temp-Dew spread
CeilingNone
Temp35°C (ISA +22)
Dew Point09°C (20% RH)
Heat Index33.0°C
AAT33.3°C
QNH1016 hPa
Density Alt3,533 ft
Elevation988 ft
Report Wrong Elevation
Raw Report
DTTD 231200Z 09004KT 030V190 9999 FEW026 35/09 Q1016=

Extra information for DTTD:More info

Metar Taf Metar & Taf Last 4 Metars F.Rules Stats Wind Profile Meteogram Temp Stats Airport Information Weather charts Add Link Nearby VenuesMetar ALERT Operation Metar Decoded Social comments